sensor_id;sensor_type;location;lat;lon;timestamp;temperature;humidity
67175;DHT22;54110;45.778;4.826;2022-10-03T00:01:48;25.30;51.50
67175;DHT22;54110;45.778;4.826;2022-10-03T00:04:40;25.30;51.50
67175;DHT22;54110;45.778;4.826;2022-10-03T00:07:16;25.30;51.50
67175;DHT22;54110;45.778;4.826;2022-10-03T00:09:54;25.30;51.50
67175;DHT22;54110;45.778;4.826;2022-10-03T00:12:38;25.30;51.50
67175;DHT22;54110;45.778;4.826;2022-10-03T00:15:12;25.30;51.40
67175;DHT22;54110;45.778;4.826;2022-10-03T00:17:43;25.30;51.50
67175;DHT22;54110;45.778;4.826;2022-10-03T00:20:33;25.30;51.50
67175;DHT22;54110;45.778;4.826;2022-10-03T00:23:07;25.30;51.20
67175;DHT22;54110;45.778;4.826;2022-10-03T00:25:41;25.20;51.40
67175;DHT22;54110;45.778;4.826;2022-10-03T00:28:21;25.30;51.30
67175;DHT22;54110;45.778;4.826;2022-10-03T00:31:03;25.30;51.20
67175;DHT22;54110;45.778;4.826;2022-10-03T00:33:39;25.30;51.20
67175;DHT22;54110;45.778;4.826;2022-10-03T00:36:16;25.30;51.20
67175;DHT22;54110;45.778;4.826;2022-10-03T00:39:07;25.30;51.20
67175;DHT22;54110;45.778;4.826;2022-10-03T00:44:46;25.30;51.20
67175;DHT22;54110;45.778;4.826;2022-10-03T00:47:29;25.30;51.10
67175;DHT22;54110;45.778;4.826;2022-10-03T00:50:17;25.30;51.20
67175;DHT22;54110;45.778;4.826;2022-10-03T00:53:14;25.30;51.10
67175;DHT22;54110;45.778;4.826;2022-10-03T00:55:52;25.30;51.10
67175;DHT22;54110;45.778;4.826;2022-10-03T00:58:37;25.20;51.10
67175;DHT22;54110;45.778;4.826;2022-10-03T01:01:27;25.30;51.10
67175;DHT22;54110;45.778;4.826;2022-10-03T01:04:03;25.30;51.00
67175;DHT22;54110;45.778;4.826;2022-10-03T01:06:40;25.30;51.10
67175;DHT22;54110;45.778;4.826;2022-10-03T01:09:29;25.20;51.00
67175;DHT22;54110;45.778;4.826;2022-10-03T01:12:10;25.30;50.90
67175;DHT22;54110;45.778;4.826;2022-10-03T01:15:08;25.30;51.00
67175;DHT22;54110;45.778;4.826;2022-10-03T01:17:41;25.30;50.90
67175;DHT22;54110;45.778;4.826;2022-10-03T01:20:18;25.20;51.00
67175;DHT22;54110;45.778;4.826;2022-10-03T01:25:55;25.30;50.90
67175;DHT22;54110;45.778;4.826;2022-10-03T01:28:36;25.30;51.10
67175;DHT22;54110;45.778;4.826;2022-10-03T01:31:08;25.30;51.00
67175;DHT22;54110;45.778;4.826;2022-10-03T01:33:38;25.30;51.00
67175;DHT22;54110;45.778;4.826;2022-10-03T01:36:11;25.30;51.00
67175;DHT22;54110;45.778;4.826;2022-10-03T01:38:43;25.30;51.00
67175;DHT22;54110;45.778;4.826;2022-10-03T01:41:13;25.30;50.90
67175;DHT22;54110;45.778;4.826;2022-10-03T01:43:46;25.30;51.00
67175;DHT22;54110;45.778;4.826;2022-10-03T01:46:16;25.30;50.90
67175;DHT22;54110;45.778;4.826;2022-10-03T01:48:50;25.30;50.90
67175;DHT22;54110;45.778;4.826;2022-10-03T01:51:23;25.30;50.90
67175;DHT22;54110;45.778;4.826;2022-10-03T01:54:04;25.30;50.90
67175;DHT22;54110;45.778;4.826;2022-10-03T01:56:34;25.30;50.90
67175;DHT22;54110;45.778;4.826;2022-10-03T01:59:07;25.30;51.00
67175;DHT22;54110;45.778;4.826;2022-10-03T02:01:45;25.30;50.90
67175;DHT22;54110;45.778;4.826;2022-10-03T02:04:17;25.30;50.80
67175;DHT22;54110;45.778;4.826;2022-10-03T02:06:51;25.30;50.90
67175;DHT22;54110;45.778;4.826;2022-10-03T02:09:27;25.30;50.80
67175;DHT22;54110;45.778;4.826;2022-10-03T02:12:01;25.30;50.90
67175;DHT22;54110;45.778;4.826;2022-10-03T02:14:45;25.30;50.90
67175;DHT22;54110;45.778;4.826;2022-10-03T02:17:22;25.30;50.80
67175;DHT22;54110;45.778;4.826;2022-10-03T02:19:56;25.30;50.80
67175;DHT22;54110;45.778;4.826;2022-10-03T02:22:30;25.30;50.90
67175;DHT22;54110;45.778;4.826;2022-10-03T02:25:07;25.30;50.90
67175;DHT22;54110;45.778;4.826;2022-10-03T02:28:02;25.30;50.80
67175;DHT22;54110;45.778;4.826;2022-10-03T02:30:50;25.30;50.80
67175;DHT22;54110;45.778;4.826;2022-10-03T02:33:39;25.30;50.90
67175;DHT22;54110;45.778;4.826;2022-10-03T02:36:49;25.30;50.90
67175;DHT22;54110;45.778;4.826;2022-10-03T02:46:08;25.30;51.00
67175;DHT22;54110;45.778;4.826;2022-10-03T02:49:11;25.30;50.90
67175;DHT22;54110;45.778;4.826;2022-10-03T02:52:03;25.30;50.90
67175;DHT22;54110;45.778;4.826;2022-10-03T03:00:47;25.30;50.90
67175;DHT22;54110;45.778;4.826;2022-10-03T03:03:40;25.30;51.00
67175;DHT22;54110;45.778;4.826;2022-10-03T03:06:30;25.30;50.90
67175;DHT22;54110;45.778;4.826;2022-10-03T03:12:23;25.30;50.90
67175;DHT22;54110;45.778;4.826;2022-10-03T03:15:19;25.20;50.90
67175;DHT22;54110;45.778;4.826;2022-10-03T03:17:58;25.30;50.90
67175;DHT22;54110;45.778;4.826;2022-10-03T03:20:43;25.20;51.00
67175;DHT22;54110;45.778;4.826;2022-10-03T03:23:37;25.30;51.00
67175;DHT22;54110;45.778;4.826;2022-10-03T03:29:11;25.30;50.90
67175;DHT22;54110;45.778;4.826;2022-10-03T03:31:45;25.20;51.00
67175;DHT22;54110;45.778;4.826;2022-10-03T03:34:17;25.30;51.00
67175;DHT22;54110;45.778;4.826;2022-10-03T03:36:52;25.20;51.00
67175;DHT22;54110;45.778;4.826;2022-10-03T03:39:38;25.30;51.00
67175;DHT22;54110;45.778;4.826;2022-10-03T03:42:30;25.30;50.90
67175;DHT22;54110;45.778;4.826;2022-10-03T03:45:07;25.30;50.90
67175;DHT22;54110;45.778;4.826;2022-10-03T03:48:00;25.20;51.00
67175;DHT22;54110;45.778;4.826;2022-10-03T03:50:39;25.30;50.90
67175;DHT22;54110;45.778;4.826;2022-10-03T03:53:37;25.20;51.10
67175;DHT22;54110;45.778;4.826;2022-10-03T03:56:24;25.30;51.00
67175;DHT22;54110;45.778;4.826;2022-10-03T03:59:01;25.20;51.10
67175;DHT22;54110;45.778;4.826;2022-10-03T04:01:43;25.30;51.10
67175;DHT22;54110;45.778;4.826;2022-10-03T04:04:27;25.30;51.10
67175;DHT22;54110;45.778;4.826;2022-10-03T04:07:09;25.30;51.10
67175;DHT22;54110;45.778;4.826;2022-10-03T04:09:57;25.30;51.10
67175;DHT22;54110;45.778;4.826;2022-10-03T04:12:41;25.30;51.60
67175;DHT22;54110;45.778;4.826;2022-10-03T04:15:26;25.20;51.10
67175;DHT22;54110;45.778;4.826;2022-10-03T04:18:17;25.30;51.10
67175;DHT22;54110;45.778;4.826;2022-10-03T04:20:57;25.20;51.00
67175;DHT22;54110;45.778;4.826;2022-10-03T04:23:40;25.20;51.10
67175;DHT22;54110;45.778;4.826;2022-10-03T04:26:23;25.20;51.10
67175;DHT22;54110;45.778;4.826;2022-10-03T04:29:13;25.20;51.10
67175;DHT22;54110;45.778;4.826;2022-10-03T04:31:48;25.20;51.10
67175;DHT22;54110;45.778;4.826;2022-10-03T04:34:28;25.30;51.20
67175;DHT22;54110;45.778;4.826;2022-10-03T04:37:10;25.30;51.10
67175;DHT22;54110;45.778;4.826;2022-10-03T04:39:46;25.30;51.10
67175;DHT22;54110;45.778;4.826;2022-10-03T04:42:26;25.20;51.10
67175;DHT22;54110;45.778;4.826;2022-10-03T04:45:06;25.30;51.20
67175;DHT22;54110;45.778;4.826;2022-10-03T04:47:41;25.30;51.20
67175;DHT22;54110;45.778;4.826;2022-10-03T04:50:23;25.20;51.10
67175;DHT22;54110;45.778;4.826;2022-10-03T04:52:57;25.30;51.20
67175;DHT22;54110;45.778;4.826;2022-10-03T04:55:37;25.30;51.20
67175;DHT22;54110;45.778;4.826;2022-10-03T04:58:16;25.30;51.20
67175;DHT22;54110;45.778;4.826;2022-10-03T05:00:56;25.30;51.10
67175;DHT22;54110;45.778;4.826;2022-10-03T05:03:39;25.30;51.20
67175;DHT22;54110;45.778;4.826;2022-10-03T05:06:21;25.30;51.20
67175;DHT22;54110;45.778;4.826;2022-10-03T05:08:55;25.30;51.10
67175;DHT22;54110;45.778;4.826;2022-10-03T05:11:33;25.30;51.20
67175;DHT22;54110;45.778;4.826;2022-10-03T05:14:09;25.30;51.20
67175;DHT22;54110;45.778;4.826;2022-10-03T05:16:41;25.30;51.20
67175;DHT22;54110;45.778;4.826;2022-10-03T05:19:39;25.30;51.20
67175;DHT22;54110;45.778;4.826;2022-10-03T05:22:13;25.40;51.10
67175;DHT22;54110;45.778;4.826;2022-10-03T05:24:46;25.30;51.40
67175;DHT22;54110;45.778;4.826;2022-10-03T05:27:21;25.30;51.40
67175;DHT22;54110;45.778;4.826;2022-10-03T05:29:58;25.30;51.30
67175;DHT22;54110;45.778;4.826;2022-10-03T05:32:32;25.30;51.20
67175;DHT22;54110;45.778;4.826;2022-10-03T05:35:10;25.30;51.90
67175;DHT22;54110;45.778;4.826;2022-10-03T05:37:57;25.40;51.30
67175;DHT22;54110;45.778;4.826;2022-10-03T05:40:29;25.40;51.40
67175;DHT22;54110;45.778;4.826;2022-10-03T05:43:02;25.30;51.50
67175;DHT22;54110;45.778;4.826;2022-10-03T05:45:40;25.30;51.50
67175;DHT22;54110;45.778;4.826;2022-10-03T05:48:17;25.30;51.50
67175;DHT22;54110;45.778;4.826;2022-10-03T05:54:24;25.40;51.50
67175;DHT22;54110;45.778;4.826;2022-10-03T05:57:11;25.40;51.60
67175;DHT22;54110;45.778;4.826;2022-10-03T06:00:01;25.30;51.60
67175;DHT22;54110;45.778;4.826;2022-10-03T06:02:52;25.40;51.60
67175;DHT22;54110;45.778;4.826;2022-10-03T06:05:28;25.40;51.60
67175;DHT22;54110;45.778;4.826;2022-10-03T06:08:28;25.40;51.70
67175;DHT22;54110;45.778;4.826;2022-10-03T06:11:03;25.40;51.60
67175;DHT22;54110;45.778;4.826;2022-10-03T06:13:45;25.20;51.90
67175;DHT22;54110;45.778;4.826;2022-10-03T06:16:25;25.30;51.80
67175;DHT22;54110;45.778;4.826;2022-10-03T06:19:23;25.30;51.60
67175;DHT22;54110;45.778;4.826;2022-10-03T06:31:52;25.30;51.50
67175;DHT22;54110;45.778;4.826;2022-10-03T06:34:43;25.30;51.50
67175;DHT22;54110;45.778;4.826;2022-10-03T06:40:34;25.30;51.50
67175;DHT22;54110;45.778;4.826;2022-10-03T06:46:44;25.30;51.30
67175;DHT22;54110;45.778;4.826;2022-10-03T06:52:47;25.30;51.20
67175;DHT22;54110;45.778;4.826;2022-10-03T06:55:45;25.30;51.40
67175;DHT22;54110;45.778;4.826;2022-10-03T07:04:38;25.30;51.30
67175;DHT22;54110;45.778;4.826;2022-10-03T07:10:20;25.30;51.20
67175;DHT22;54110;45.778;4.826;2022-10-03T07:13:16;25.30;51.20
67175;DHT22;54110;45.778;4.826;2022-10-03T07:22:27;25.30;51.20
67175;DHT22;54110;45.778;4.826;2022-10-03T07:28:36;25.30;51.10
67175;DHT22;54110;45.778;4.826;2022-10-03T07:31:13;25.30;51.10
67175;DHT22;54110;45.778;4.826;2022-10-03T07:34:11;25.30;51.20
67175;DHT22;54110;45.778;4.826;2022-10-03T07:37:08;25.40;51.00
67175;DHT22;54110;45.778;4.826;2022-10-03T07:46:19;25.40;51.10
67175;DHT22;54110;45.778;4.826;2022-10-03T07:51:51;25.30;51.00
67175;DHT22;54110;45.778;4.826;2022-10-03T07:54:36;25.30;51.10
67175;DHT22;54110;45.778;4.826;2022-10-03T07:57:33;25.40;50.90
67175;DHT22;54110;45.778;4.826;2022-10-03T08:00:19;25.30;50.90
67175;DHT22;54110;45.778;4.826;2022-10-03T08:03:29;25.40;50.90
67175;DHT22;54110;45.778;4.826;2022-10-03T08:06:18;25.40;50.90
67175;DHT22;54110;45.778;4.826;2022-10-03T08:09:07;25.40;51.00
67175;DHT22;54110;45.778;4.826;2022-10-03T08:11:57;25.40;50.90
67175;DHT22;54110;45.778;4.826;2022-10-03T08:14:36;25.40;50.90
67175;DHT22;54110;45.778;4.826;2022-10-03T08:20:25;25.40;50.70
67175;DHT22;54110;45.778;4.826;2022-10-03T08:23:09;25.40;50.80
67175;DHT22;54110;45.778;4.826;2022-10-03T08:25:57;25.40;50.80
67175;DHT22;54110;45.778;4.826;2022-10-03T08:28:49;25.40;50.60
67175;DHT22;54110;45.778;4.826;2022-10-03T08:34:44;25.40;50.60
67175;DHT22;54110;45.778;4.826;2022-10-03T08:43:38;25.40;50.80
67175;DHT22;54110;45.778;4.826;2022-10-03T08:46:20;25.40;50.80
67175;DHT22;54110;45.778;4.826;2022-10-03T08:49:09;25.40;50.80
67175;DHT22;54110;45.778;4.826;2022-10-03T08:52:07;25.40;50.80
67175;DHT22;54110;45.778;4.826;2022-10-03T08:55:18;25.40;50.70
67175;DHT22;54110;45.778;4.826;2022-10-03T08:58:07;25.40;50.70
67175;DHT22;54110;45.778;4.826;2022-10-03T09:00:55;25.40;50.80
67175;DHT22;54110;45.778;4.826;2022-10-03T09:04:03;25.40;50.80
67175;DHT22;54110;45.778;4.826;2022-10-03T09:06:57;25.40;50.50
67175;DHT22;54110;45.778;4.826;2022-10-03T09:12:28;25.50;50.60
67175;DHT22;54110;45.778;4.826;2022-10-03T09:15:27;25.40;50.90
67175;DHT22;54110;45.778;4.826;2022-10-03T09:18:38;25.40;50.80
67175;DHT22;54110;45.778;4.826;2022-10-03T09:24:31;25.40;50.50
67175;DHT22;54110;45.778;4.826;2022-10-03T09:27:22;25.40;50.60
67175;DHT22;54110;45.778;4.826;2022-10-03T09:36:08;25.50;50.50
67175;DHT22;54110;45.778;4.826;2022-10-03T09:39:06;25.40;50.50
67175;DHT22;54110;45.778;4.826;2022-10-03T09:42:06;25.50;50.50
67175;DHT22;54110;45.778;4.826;2022-10-03T09:48:08;25.50;50.50
67175;DHT22;54110;45.778;4.826;2022-10-03T09:57:01;25.50;50.30
67175;DHT22;54110;45.778;4.826;2022-10-03T10:11:21;25.50;50.30
67175;DHT22;54110;45.778;4.826;2022-10-03T10:14:18;25.50;50.30
67175;DHT22;54110;45.778;4.826;2022-10-03T10:17:10;25.50;50.00
67175;DHT22;54110;45.778;4.826;2022-10-03T10:19:58;25.50;50.20
67175;DHT22;54110;45.778;4.826;2022-10-03T10:38:17;25.50;50.10
67175;DHT22;54110;45.778;4.826;2022-10-03T10:47:17;25.50;50.10
67175;DHT22;54110;45.778;4.826;2022-10-03T10:50:29;25.40;50.30
67175;DHT22;54110;45.778;4.826;2022-10-03T11:09:27;25.50;50.00
67175;DHT22;54110;45.778;4.826;2022-10-03T11:12:32;25.50;50.10
67175;DHT22;54110;45.778;4.826;2022-10-03T11:22:09;25.50;49.90
67175;DHT22;54110;45.778;4.826;2022-10-03T11:31:10;25.50;50.00
67175;DHT22;54110;45.778;4.826;2022-10-03T11:34:13;25.50;49.90
67175;DHT22;54110;45.778;4.826;2022-10-03T11:39:48;25.50;49.90
67175;DHT22;54110;45.778;4.826;2022-10-03T11:42:28;25.50;50.00
67175;DHT22;54110;45.778;4.826;2022-10-03T11:45:01;25.50;50.00
67175;DHT22;54110;45.778;4.826;2022-10-03T11:47:50;25.50;50.00
67175;DHT22;54110;45.778;4.826;2022-10-03T11:50:26;25.50;49.90
67175;DHT22;54110;45.778;4.826;2022-10-03T11:53:19;25.50;49.90
67175;DHT22;54110;45.778;4.826;2022-10-03T11:55:49;25.60;50.00
67175;DHT22;54110;45.778;4.826;2022-10-03T11:58:30;25.50;50.00
67175;DHT22;54110;45.778;4.826;2022-10-03T12:01:04;25.50;49.80
67175;DHT22;54110;45.778;4.826;2022-10-03T12:03:40;25.50;50.00
67175;DHT22;54110;45.778;4.826;2022-10-03T12:06:16;25.50;49.90
67175;DHT22;54110;45.778;4.826;2022-10-03T12:08:58;25.60;49.90
67175;DHT22;54110;45.778;4.826;2022-10-03T12:11:31;25.50;49.90
67175;DHT22;54110;45.778;4.826;2022-10-03T12:14:11;25.50;49.80
67175;DHT22;54110;45.778;4.826;2022-10-03T12:16:53;25.60;49.80
67175;DHT22;54110;45.778;4.826;2022-10-03T12:19:27;25.50;49.70
67175;DHT22;54110;45.778;4.826;2022-10-03T12:21:56;25.50;49.70
67175;DHT22;54110;45.778;4.826;2022-10-03T12:24:25;25.50;49.70
67175;DHT22;54110;45.778;4.826;2022-10-03T12:26:57;25.50;50.30
67175;DHT22;54110;45.778;4.826;2022-10-03T12:29:28;25.60;49.60
67175;DHT22;54110;45.778;4.826;2022-10-03T12:32:06;25.60;49.60
67175;DHT22;54110;45.778;4.826;2022-10-03T12:34:42;25.60;49.50
67175;DHT22;54110;45.778;4.826;2022-10-03T12:37:24;25.60;49.50
67175;DHT22;54110;45.778;4.826;2022-10-03T12:40:01;25.60;49.40
67175;DHT22;54110;45.778;4.826;2022-10-03T12:42:31;25.50;49.70
67175;DHT22;54110;45.778;4.826;2022-10-03T12:45:01;25.50;49.60
67175;DHT22;54110;45.778;4.826;2022-10-03T12:47:42;25.50;49.60
67175;DHT22;54110;45.778;4.826;2022-10-03T12:50:28;25.60;49.40
67175;DHT22;54110;45.778;4.826;2022-10-03T12:53:07;25.60;49.50
67175;DHT22;54110;45.778;4.826;2022-10-03T12:55:39;25.50;49.70
67175;DHT22;54110;45.778;4.826;2022-10-03T12:58:15;25.60;49.70
67175;DHT22;54110;45.778;4.826;2022-10-03T13:00:53;25.60;49.40
67175;DHT22;54110;45.778;4.826;2022-10-03T13:03:30;25.60;49.70
67175;DHT22;54110;45.778;4.826;2022-10-03T13:09:08;25.60;49.70
67175;DHT22;54110;45.778;4.826;2022-10-03T13:11:45;25.50;49.70
67175;DHT22;54110;45.778;4.826;2022-10-03T13:14:29;25.50;49.70
67175;DHT22;54110;45.778;4.826;2022-10-03T13:17:03;25.60;49.90
67175;DHT22;54110;45.778;4.826;2022-10-03T13:19:40;25.50;49.80
67175;DHT22;54110;45.778;4.826;2022-10-03T13:22:27;25.50;49.70
67175;DHT22;54110;45.778;4.826;2022-10-03T13:25:00;25.60;49.70
67175;DHT22;54110;45.778;4.826;2022-10-03T13:27:36;25.50;49.80
67175;DHT22;54110;45.778;4.826;2022-10-03T13:30:11;25.60;49.80
67175;DHT22;54110;45.778;4.826;2022-10-03T13:32:40;25.50;49.70
67175;DHT22;54110;45.778;4.826;2022-10-03T13:35:18;25.60;49.80
67175;DHT22;54110;45.778;4.826;2022-10-03T13:40:41;25.60;49.60
67175;DHT22;54110;45.778;4.826;2022-10-03T13:43:11;25.50;49.70
67175;DHT22;54110;45.778;4.826;2022-10-03T13:45:41;25.50;49.70
67175;DHT22;54110;45.778;4.826;2022-10-03T13:48:11;25.60;49.60
67175;DHT22;54110;45.778;4.826;2022-10-03T13:50:44;25.60;49.70
67175;DHT22;54110;45.778;4.826;2022-10-03T13:53:23;25.60;49.60
67175;DHT22;54110;45.778;4.826;2022-10-03T13:55:52;25.60;49.70
67175;DHT22;54110;45.778;4.826;2022-10-03T13:58:30;25.60;49.70
67175;DHT22;54110;45.778;4.826;2022-10-03T14:01:10;25.60;49.40
67175;DHT22;54110;45.778;4.826;2022-10-03T14:03:44;25.60;49.40
67175;DHT22;54110;45.778;4.826;2022-10-03T14:06:20;25.60;49.40
67175;DHT22;54110;45.778;4.826;2022-10-03T14:09:32;25.60;49.40
67175;DHT22;54110;45.778;4.826;2022-10-03T14:12:09;25.60;49.40
67175;DHT22;54110;45.778;4.826;2022-10-03T14:17:35;25.60;49.40
67175;DHT22;54110;45.778;4.826;2022-10-03T14:20:15;25.60;49.40
67175;DHT22;54110;45.778;4.826;2022-10-03T14:22:52;25.60;49.40
67175;DHT22;54110;45.778;4.826;2022-10-03T14:25:25;25.60;49.40
67175;DHT22;54110;45.778;4.826;2022-10-03T14:27:55;25.50;49.40
67175;DHT22;54110;45.778;4.826;2022-10-03T14:30:24;25.60;49.50
67175;DHT22;54110;45.778;4.826;2022-10-03T14:33:10;25.60;49.40
67175;DHT22;54110;45.778;4.826;2022-10-03T14:35:42;25.60;49.40
67175;DHT22;54110;45.778;4.826;2022-10-03T14:41:27;25.60;49.30
67175;DHT22;54110;45.778;4.826;2022-10-03T14:43:59;25.60;49.40
67175;DHT22;54110;45.778;4.826;2022-10-03T14:46:29;25.60;49.40
67175;DHT22;54110;45.778;4.826;2022-10-03T14:48:57;25.50;49.40
67175;DHT22;54110;45.778;4.826;2022-10-03T14:51:28;25.60;49.40
67175;DHT22;54110;45.778;4.826;2022-10-03T14:53:56;25.60;49.40
67175;DHT22;54110;45.778;4.826;2022-10-03T14:56:25;25.60;49.40
67175;DHT22;54110;45.778;4.826;2022-10-03T14:58:52;25.60;49.40
67175;DHT22;54110;45.778;4.826;2022-10-03T15:01:21;25.60;49.40
67175;DHT22;54110;45.778;4.826;2022-10-03T15:03:57;25.60;49.40
67175;DHT22;54110;45.778;4.826;2022-10-03T15:06:34;25.60;49.40
67175;DHT22;54110;45.778;4.826;2022-10-03T15:09:02;25.60;49.40
67175;DHT22;54110;45.778;4.826;2022-10-03T15:11:32;25.60;49.40
67175;DHT22;54110;45.778;4.826;2022-10-03T15:14:00;25.60;49.40
67175;DHT22;54110;45.778;4.826;2022-10-03T15:16:27;25.60;49.40
67175;DHT22;54110;45.778;4.826;2022-10-03T15:18:56;25.60;49.50
67175;DHT22;54110;45.778;4.826;2022-10-03T15:21:24;25.60;49.40
67175;DHT22;54110;45.778;4.826;2022-10-03T15:23:55;25.60;49.40
67175;DHT22;54110;45.778;4.826;2022-10-03T15:26:22;25.60;49.40
67175;DHT22;54110;45.778;4.826;2022-10-03T15:28:53;25.60;49.40
67175;DHT22;54110;45.778;4.826;2022-10-03T15:31:27;25.60;49.40
67175;DHT22;54110;45.778;4.826;2022-10-03T15:33:57;25.60;49.40
67175;DHT22;54110;45.778;4.826;2022-10-03T15:36:25;25.50;49.40
67175;DHT22;54110;45.778;4.826;2022-10-03T15:38:55;25.60;49.40
67175;DHT22;54110;45.778;4.826;2022-10-03T15:41:26;25.60;49.40
67175;DHT22;54110;45.778;4.826;2022-10-03T15:43:57;25.60;49.40
67175;DHT22;54110;45.778;4.826;2022-10-03T15:46:30;25.60;49.40
67175;DHT22;54110;45.778;4.826;2022-10-03T15:49:00;25.60;49.40
67175;DHT22;54110;45.778;4.826;2022-10-03T15:51:28;25.60;49.50
67175;DHT22;54110;45.778;4.826;2022-10-03T15:53:57;25.60;49.70
67175;DHT22;54110;45.778;4.826;2022-10-03T15:56:26;25.60;49.70
67175;DHT22;54110;45.778;4.826;2022-10-03T15:58:59;25.50;49.40
67175;DHT22;54110;45.778;4.826;2022-10-03T16:01:27;25.50;49.60
67175;DHT22;54110;45.778;4.826;2022-10-03T16:03:56;25.60;49.70
67175;DHT22;54110;45.778;4.826;2022-10-03T16:06:27;25.60;49.70
67175;DHT22;54110;45.778;4.826;2022-10-03T16:08:57;25.50;49.70
67175;DHT22;54110;45.778;4.826;2022-10-03T16:11:26;25.60;49.80
67175;DHT22;54110;45.778;4.826;2022-10-03T16:14:08;25.60;49.90
67175;DHT22;54110;45.778;4.826;2022-10-03T16:16:38;25.60;49.80
67175;DHT22;54110;45.778;4.826;2022-10-03T16:19:21;25.50;49.90
67175;DHT22;54110;45.778;4.826;2022-10-03T16:21:53;25.60;49.90
67175;DHT22;54110;45.778;4.826;2022-10-03T16:24:28;25.50;49.80
67175;DHT22;54110;45.778;4.826;2022-10-03T16:27:00;25.60;49.80
67175;DHT22;54110;45.778;4.826;2022-10-03T16:29:32;25.50;49.80
67175;DHT22;54110;45.778;4.826;2022-10-03T16:32:02;25.50;49.80
67175;DHT22;54110;45.778;4.826;2022-10-03T16:34:30;25.60;49.90
67175;DHT22;54110;45.778;4.826;2022-10-03T16:36:58;25.50;49.80
67175;DHT22;54110;45.778;4.826;2022-10-03T16:39:27;25.50;49.80
67175;DHT22;54110;45.778;4.826;2022-10-03T16:41:55;25.50;49.80
67175;DHT22;54110;45.778;4.826;2022-10-03T16:44:26;25.50;49.70
67175;DHT22;54110;45.778;4.826;2022-10-03T16:46:59;25.60;49.70
67175;DHT22;54110;45.778;4.826;2022-10-03T16:49:35;25.60;49.90
67175;DHT22;54110;45.778;4.826;2022-10-03T16:52:06;25.60;49.80
67175;DHT22;54110;45.778;4.826;2022-10-03T16:54:34;25.60;50.00
67175;DHT22;54110;45.778;4.826;2022-10-03T16:57:04;25.60;49.80
67175;DHT22;54110;45.778;4.826;2022-10-03T16:59:33;25.60;49.80
67175;DHT22;54110;45.778;4.826;2022-10-03T17:02:04;25.60;49.90
67175;DHT22;54110;45.778;4.826;2022-10-03T17:04:32;25.60;49.90
67175;DHT22;54110;45.778;4.826;2022-10-03T17:07:02;25.60;49.90
67175;DHT22;54110;45.778;4.826;2022-10-03T17:09:34;25.60;49.90
67175;DHT22;54110;45.778;4.826;2022-10-03T17:12:03;25.60;50.00
67175;DHT22;54110;45.778;4.826;2022-10-03T17:14:35;25.60;50.10
67175;DHT22;54110;45.778;4.826;2022-10-03T17:17:05;25.60;50.10
67175;DHT22;54110;45.778;4.826;2022-10-03T17:19:35;25.60;50.20
67175;DHT22;54110;45.778;4.826;2022-10-03T17:22:06;25.60;50.20
67175;DHT22;54110;45.778;4.826;2022-10-03T17:24:41;25.60;50.10
67175;DHT22;54110;45.778;4.826;2022-10-03T17:27:14;25.60;50.20
67175;DHT22;54110;45.778;4.826;2022-10-03T17:29:46;25.60;50.20
67175;DHT22;54110;45.778;4.826;2022-10-03T17:32:19;25.60;50.20
67175;DHT22;54110;45.778;4.826;2022-10-03T17:34:50;25.60;50.20
67175;DHT22;54110;45.778;4.826;2022-10-03T17:37:44;25.60;50.20
67175;DHT22;54110;45.778;4.826;2022-10-03T17:40:20;25.70;50.40
67175;DHT22;54110;45.778;4.826;2022-10-03T17:42:52;25.60;50.50
67175;DHT22;54110;45.778;4.826;2022-10-03T17:45:27;25.60;50.50
67175;DHT22;54110;45.778;4.826;2022-10-03T17:47:58;25.60;50.60
67175;DHT22;54110;45.778;4.826;2022-10-03T17:50:28;25.60;50.60
67175;DHT22;54110;45.778;4.826;2022-10-03T17:52:55;25.60;50.60
67175;DHT22;54110;45.778;4.826;2022-10-03T17:55:25;25.60;50.60
67175;DHT22;54110;45.778;4.826;2022-10-03T17:57:53;25.60;50.60
67175;DHT22;54110;45.778;4.826;2022-10-03T18:00:22;25.60;50.70
67175;DHT22;54110;45.778;4.826;2022-10-03T18:02:56;25.70;50.80
67175;DHT22;54110;45.778;4.826;2022-10-03T18:05:27;25.70;50.70
67175;DHT22;54110;45.778;4.826;2022-10-03T18:07:54;25.60;50.90
67175;DHT22;54110;45.778;4.826;2022-10-03T18:10:22;25.60;50.80
67175;DHT22;54110;45.778;4.826;2022-10-03T18:12:50;25.60;51.00
67175;DHT22;54110;45.778;4.826;2022-10-03T18:18:25;25.70;51.40
67175;DHT22;54110;45.778;4.826;2022-10-03T18:20:59;25.70;51.70
67175;DHT22;54110;45.778;4.826;2022-10-03T18:23:36;25.60;51.70
67175;DHT22;54110;45.778;4.826;2022-10-03T18:26:05;25.70;51.70
67175;DHT22;54110;45.778;4.826;2022-10-03T18:28:43;25.60;51.50
67175;DHT22;54110;45.778;4.826;2022-10-03T18:31:14;25.70;51.70
67175;DHT22;54110;45.778;4.826;2022-10-03T18:33:45;25.60;51.60
67175;DHT22;54110;45.778;4.826;2022-10-03T18:36:16;25.70;51.70
67175;DHT22;54110;45.778;4.826;2022-10-03T18:38:44;25.60;51.60
67175;DHT22;54110;45.778;4.826;2022-10-03T18:41:12;25.60;51.60
67175;DHT22;54110;45.778;4.826;2022-10-03T18:43:42;25.60;51.60
67175;DHT22;54110;45.778;4.826;2022-10-03T18:46:13;25.60;51.60
67175;DHT22;54110;45.778;4.826;2022-10-03T18:48:50;25.60;52.10
67175;DHT22;54110;45.778;4.826;2022-10-03T18:51:24;25.70;51.80
67175;DHT22;54110;45.778;4.826;2022-10-03T18:53:56;25.60;51.80
67175;DHT22;54110;45.778;4.826;2022-10-03T18:56:25;25.60;51.90
67175;DHT22;54110;45.778;4.826;2022-10-03T18:59:06;25.60;52.00
67175;DHT22;54110;45.778;4.826;2022-10-03T19:01:44;25.70;52.00
67175;DHT22;54110;45.778;4.826;2022-10-03T19:04:15;25.70;52.20
67175;DHT22;54110;45.778;4.826;2022-10-03T19:06:44;25.60;52.10
67175;DHT22;54110;45.778;4.826;2022-10-03T19:09:15;25.60;52.10
67175;DHT22;54110;45.778;4.826;2022-10-03T19:11:48;25.60;52.10
67175;DHT22;54110;45.778;4.826;2022-10-03T19:14:17;25.60;52.10
67175;DHT22;54110;45.778;4.826;2022-10-03T19:17:07;25.60;52.10
67175;DHT22;54110;45.778;4.826;2022-10-03T19:19:48;25.60;52.00
67175;DHT22;54110;45.778;4.826;2022-10-03T19:22:18;25.70;52.10
67175;DHT22;54110;45.778;4.826;2022-10-03T19:24:48;25.60;52.10
67175;DHT22;54110;45.778;4.826;2022-10-03T19:27:16;25.60;52.00
67175;DHT22;54110;45.778;4.826;2022-10-03T19:29:44;25.60;51.90
67175;DHT22;54110;45.778;4.826;2022-10-03T19:32:17;25.60;51.90
67175;DHT22;54110;45.778;4.826;2022-10-03T19:34:48;25.60;51.80
67175;DHT22;54110;45.778;4.826;2022-10-03T19:37:17;25.60;51.80
67175;DHT22;54110;45.778;4.826;2022-10-03T19:39:44;25.60;51.80
67175;DHT22;54110;45.778;4.826;2022-10-03T19:42:21;25.60;51.80
67175;DHT22;54110;45.778;4.826;2022-10-03T19:44:54;25.60;51.60
67175;DHT22;54110;45.778;4.826;2022-10-03T19:47:21;25.60;51.60
67175;DHT22;54110;45.778;4.826;2022-10-03T19:50:00;25.60;51.70
67175;DHT22;54110;45.778;4.826;2022-10-03T19:52:29;25.60;51.50